Terminal Aerodrome Forecast
Issued by NWS Duluth, MN

Home | Current Version | Previous Version | Text Only | Print | Product List | Glossary On
Versions: 1 2 3 4 5 6 7 8 9 10 11 12 13 14 15 16 17 18 19 20 21 22 23
534
FTUS43 KDLH 172336
TAFINL
TAF
KINL 172336Z 1800/1824 31004KT P6SM SCT017
      TEMPO 1800/1802 BKN017
     FM180800 31005KT P6SM BKN027
     FM181100 31004KT 5SM BR BKN016
     FM181800 30009KT P6SM OVC019
     FM182100 30010G16KT P6SM BKN025=

USA.gov is the U.S. government's official web portal to all federal, state and local government web resources and services.